Time;durP1;ratioP1;P1;durP2;ratioP2;P2;SDS_P1;SDS_P2;PMS_P1;PMS_P2;Temp;Humidity;BMP_temperature;BMP_pressure;BME280_temperature;BME280_humidity;BME280_pressure;Samples;Min_cycle;Max_cycle;Signal;HPM_P1;HPM_P2
2023/05/03 00:02:23;;;;;;;;;;;;;;;15.60;95.38;100214.38;4456112;32;33536;-84
2023/05/03 00:04:52;;;;;;;;;;;;;;;15.89;91.92;100202.22;4457028;32;34231;-83
2023/05/03 00:07:20;;;;;;;;;;;;;;;15.77;92.48;100204.47;4459310;32;34163;-83
2023/05/03 00:09:48;;;;;;;;;;;;;;;14.68;98.99;100199.22;4461155;32;34211;-82
2023/05/03 00:12:16;;;;;;;;;;;;;;;14.51;100.00;100205.53;4452329;32;33292;-83
2023/05/03 00:14:44;;;;;;;;;;;;;;;14.69;100.00;100214.00;4457193;32;34222;-81
2023/05/03 00:17:11;;;;;;;;;;;;;;;14.95;100.00;100203.59;4451485;32;34203;-83
2023/05/03 00:19:39;;;;;;;;;;;;;;;15.73;93.43;100206.09;4461241;32;34497;-82
2023/05/03 00:22:07;;;;;;;;;;;;;;;15.73;93.64;100205.22;4452613;32;32789;-82
2023/05/03 00:24:35;;;;;;;;;;;;;;;15.40;93.54;100207.66;4465782;32;33245;-83
2023/05/03 00:27:03;;;;;;;;;;;;;;;15.91;91.34;100204.88;4448686;32;34503;-82
2023/05/03 00:29:30;;;;;;;;;;;;;;;16.26;89.10;100200.69;4463048;32;33554;-82
2023/05/03 00:31:58;;;;;;;;;;;;;;;16.40;87.92;100202.78;4457862;32;33413;-82
2023/05/03 00:34:26;;;;;;;;;;;;;;;15.50;91.75;100205.38;4466036;32;33925;-82
2023/05/03 00:36:54;;;;;;;;;;;;;;;15.88;92.45;100205.69;4453049;32;33898;-83
2023/05/03 00:39:21;;;;;;;;;;;;;;;15.41;96.16;100202.47;4463985;32;34744;-82
2023/05/03 00:41:49;;;;;;;;;;;;;;;15.78;92.48;100206.28;4456880;32;33383;-82
2023/05/03 00:44:16;;;;;;;;;;;;;;;15.97;90.53;100210.28;4450368;32;35043;-83
2023/05/03 00:46:43;;;;;;;;;;;;;;;16.01;89.89;100208.66;4440096;32;33988;-83
2023/05/03 00:49:11;;;;;;;;;;;;;;;15.79;90.38;100208.03;4442277;32;33805;-83
2023/05/03 00:51:38;;;;;;;;;;;;;;;15.27;95.90;100214.19;4446172;32;34051;-82
2023/05/03 00:54:05;;;;;;;;;;;;;;;14.62;98.79;100224.16;4454380;32;35360;-83
2023/05/03 00:56:33;;;;;;;;;;;;;;;14.64;99.79;100223.41;4449102;32;34947;-82
2023/05/03 00:59:17;;;;;;;;;;;;;;;14.41;100.00;100224.25;4461339;32;34026;-83
2023/05/03 01:01:48;;;;;;;;;;;;;;;14.59;100.00;100227.56;4453027;32;33229;-82
2023/05/03 01:04:16;;;;;;;;;;;;;;;14.31;100.00;100228.25;4462523;32;33650;-83
2023/05/03 01:06:46;;;;;;;;;;;;;;;14.30;100.00;100227.37;4464898;32;34254;-83
2023/05/03 01:09:16;;;;;;;;;;;;;;;14.65;100.00;100233.00;4454859;32;34503;-82
2023/05/03 01:11:52;;;;;;;;;;;;;;;15.07;100.00;100229.22;4452148;32;33253;-82
2023/05/03 01:14:27;;;;;;;;;;;;;;;15.20;98.95;100235.69;4449779;32;33591;-82
2023/05/03 01:16:56;;;;;;;;;;;;;;;14.92;97.49;100232.19;4456153;32;34167;-83
2023/05/03 01:19:34;;;;;;;;;;;;;;;14.36;100.00;100240.63;4453378;32;34111;-83
2023/05/03 01:22:21;;;;;;;;;;;;;;;14.44;100.00;100235.69;4453992;32;34111;-83
2023/05/03 01:24:50;;;;;;;;;;;;;;;14.45;100.00;100239.19;4452882;32;34646;-82
2023/05/03 01:27:18;;;;;;;;;;;;;;;14.69;100.00;100237.47;4436415;32;33806;-83
2023/05/03 01:29:45;;;;;;;;;;;;;;;14.64;100.00;100239.06;4457473;32;34832;-82
2023/05/03 01:32:14;;;;;;;;;;;;;;;15.56;96.86;100236.00;4460158;32;33238;-82
2023/05/03 01:34:42;;;;;;;;;;;;;;;15.51;94.96;100229.75;4460141;32;34987;-82
2023/05/03 01:37:09;;;;;;;;;;;;;;;15.30;95.64;100232.56;4453382;32;34101;-83
2023/05/03 01:39:41;;;;;;;;;;;;;;;16.19;90.94;100235.34;4459102;32;34912;-83
2023/05/03 01:42:08;;;;;;;;;;;;;;;15.46;93.48;100228.72;4457190;32;33178;-83
2023/05/03 01:44:35;;;;;;;;;;;;;;;14.96;97.36;100227.97;4462060;32;33765;-83
2023/05/03 01:47:03;;;;;;;;;;;;;;;14.95;100.00;100229.69;4442629;32;34299;-83
2023/05/03 01:49:32;;;;;;;;;;;;;;;15.07;100.00;100232.69;4464216;32;34231;-83
2023/05/03 01:51:59;;;;;;;;;;;;;;;14.82;100.00;100227.50;4457165;32;33386;-83
2023/05/03 01:54:26;;;;;;;;;;;;;;;15.59;95.58;100225.66;4461651;32;34589;-83
2023/05/03 01:56:54;;;;;;;;;;;;;;;15.13;97.41;100221.59;4441272;32;33853;-83
2023/05/03 01:59:21;;;;;;;;;;;;;;;15.51;95.77;100225.44;4450539;32;34783;-83
2023/05/03 02:01:48;;;;;;;;;;;;;;;15.21;97.82;100221.84;4466862;32;33833;-83
2023/05/03 02:04:16;;;;;;;;;;;;;;;15.12;98.20;100215.47;4448642;32;32578;-83
2023/05/03 02:06:43;;;;;;;;;;;;;;;15.52;95.51;100218.47;4444159;32;34940;-83
2023/05/03 02:09:11;;;;;;;;;;;;;;;15.35;96.27;100212.72;4446132;32;34253;-83
2023/05/03 02:11:39;;;;;;;;;;;;;;;15.33;96.98;100209.16;4450278;32;32715;-83
2023/05/03 02:14:07;;;;;;;;;;;;;;;15.38;95.72;100215.44;4456598;32;31986;-84
2023/05/03 02:16:34;;;;;;;;;;;;;;;15.17;97.72;100213.00;4461028;32;34100;-83
2023/05/03 02:19:02;;;;;;;;;;;;;;;15.26;96.73;100209.78;4452755;32;34012;-84
2023/05/03 02:21:30;;;;;;;;;;;;;;;15.06;98.72;100206.53;4453092;32;34089;-84
2023/05/03 02:23:58;;;;;;;;;;;;;;;15.28;98.43;100205.53;4457487;32;33767;-83
2023/05/03 02:26:26;;;;;;;;;;;;;;;15.46;95.24;100208.72;4461371;32;33667;-84
2023/05/03 02:28:54;;;;;;;;;;;;;;;15.23;97.01;100205.38;4462340;32;35137;-83
2023/05/03 02:31:22;;;;;;;;;;;;;;;15.54;94.52;100207.22;4454946;32;32757;-83
2023/05/03 02:33:50;;;;;;;;;;;;;;;15.16;96.66;100207.75;4464900;32;34175;-84
2023/05/03 02:36:17;;;;;;;;;;;;;;;15.12;97.16;100207.66;4454571;32;34692;-83
2023/05/03 02:38:45;;;;;;;;;;;;;;;15.16;98.14;100192.09;4460790;32;34025;-83
2023/05/03 02:41:13;;;;;;;;;;;;;;;15.51;95.19;100199.31;4454877;32;33901;-83
2023/05/03 02:43:40;;;;;;;;;;;;;;;15.53;95.09;100199.38;4451772;32;33975;-83
2023/05/03 02:46:07;;;;;;;;;;;;;;;15.27;96.38;100196.81;4464351;32;35034;-83
2023/05/03 02:48:35;;;;;;;;;;;;;;;15.05;98.28;100190.03;4450188;32;33999;-83
2023/05/03 02:51:02;;;;;;;;;;;;;;;15.87;93.40;100190.84;4443432;32;32719;-84
2023/05/03 02:53:29;;;;;;;;;;;;;;;15.07;97.72;100198.78;4445361;32;34912;-84
2023/05/03 02:55:57;;;;;;;;;;;;;;;15.87;93.73;100190.84;4459302;32;33872;-84
2023/05/03 02:58:24;;;;;;;;;;;;;;;15.91;91.14;100203.16;4452562;32;34519;-84
2023/05/03 03:00:52;;;;;;;;;;;;;;;15.13;97.59;100188.53;4441625;32;32311;-84
2023/05/03 03:03:20;;;;;;;;;;;;;;;14.99;99.54;100189.81;4437170;32;35320;-83
2023/05/03 03:05:49;;;;;;;;;;;;;;;15.32;96.22;100196.97;4444962;32;34203;-83
2023/05/03 03:08:17;;;;;;;;;;;;;;;15.39;95.60;100188.47;4455013;32;34194;-83
2023/05/03 03:10:45;;;;;;;;;;;;;;;15.05;98.01;100189.13;4446747;32;33218;-83
2023/05/03 03:13:12;;;;;;;;;;;;;;;15.58;93.58;100186.44;4451254;32;33808;-83
2023/05/03 03:15:40;;;;;;;;;;;;;;;15.30;96.65;100180.38;4442580;32;33693;-83
2023/05/03 03:18:07;;;;;;;;;;;;;;;15.35;96.16;100181.38;4456332;32;34412;-83
2023/05/03 03:20:35;;;;;;;;;;;;;;;15.54;95.06;100190.69;4459954;32;33471;-83
2023/05/03 03:23:02;;;;;;;;;;;;;;;15.19;96.77;100181.75;4446100;32;34828;-83
2023/05/03 03:25:31;;;;;;;;;;;;;;;15.51;95.02;100190.56;4450881;32;34868;-83
2023/05/03 03:27:58;;;;;;;;;;;;;;;15.39;95.06;100196.31;4452812;32;34643;-83
2023/05/03 03:30:26;;;;;;;;;;;;;;;15.50;95.06;100192.31;4461296;32;33412;-83
2023/05/03 03:32:54;;;;;;;;;;;;;;;15.48;94.79;100200.94;4460931;32;33643;-83
2023/05/03 03:35:22;;;;;;;;;;;;;;;15.47;95.15;100200.06;4462726;32;34791;-83
2023/05/03 03:37:50;;;;;;;;;;;;;;;15.63;93.57;100192.72;4449118;32;34771;-83
2023/05/03 03:40:18;;;;;;;;;;;;;;;15.89;93.21;100199.59;4464945;32;33099;-83
2023/05/03 03:42:45;;;;;;;;;;;;;;;16.25;90.00;100191.06;4462658;32;34138;-83
2023/05/03 03:45:13;;;;;;;;;;;;;;;16.10;90.90;100196.75;4448333;32;34824;-83
2023/05/03 03:47:40;;;;;;;;;;;;;;;16.34;89.33;100192.16;4442715;32;34111;-83
2023/05/03 03:50:08;;;;;;;;;;;;;;;16.93;85.89;100182.44;4463790;32;33343;-83
2023/05/03 03:52:36;;;;;;;;;;;;;;;16.07;89.49;100203.59;4452566;32;32689;-83
2023/05/03 03:55:03;;;;;;;;;;;;;;;15.75;92.35;100206.16;4457498;32;33642;-83
2023/05/03 03:57:32;;;;;;;;;;;;;;;16.25;89.10;100204.16;4462922;32;34153;-83
2023/05/03 03:59:59;;;;;;;;;;;;;;;15.84;91.30;100214.28;4466394;32;33939;-83
2023/05/03 04:02:38;;;;;;;;;;;;;;;15.27;95.42;100217.69;4449501;32;33956;-83
2023/05/03 04:05:08;;;;;;;;;;;;;;;15.83;92.15;100215.09;4454887;32;34789;-83
2023/05/03 04:07:35;;;;;;;;;;;;;;;15.54;94.10;100212.44;4464904;32;34334;-83
2023/05/03 04:10:02;;;;;;;;;;;;;;;15.08;97.11;100226.63;4462956;32;33649;-83
2023/05/03 04:12:30;;;;;;;;;;;;;;;14.92;100.00;100221.75;4460240;32;33995;-83
2023/05/03 04:14:58;;;;;;;;;;;;;;;14.85;100.00;100227.56;4451122;32;33842;-84
2023/05/03 04:17:25;;;;;;;;;;;;;;;14.91;100.00;100230.37;4454380;32;35034;-83
2023/05/03 04:19:53;;;;;;;;;;;;;;;15.39;97.13;100231.97;4448113;32;33415;-83
2023/05/03 04:22:20;;;;;;;;;;;;;;;15.58;96.23;100236.06;4450081;32;34187;-84
2023/05/03 04:24:49;;;;;;;;;;;;;;;14.90;99.60;100236.47;4456385;32;34720;-83
2023/05/03 04:27:17;;;;;;;;;;;;;;;15.21;97.67;100237.50;4461817;32;33856;-83
2023/05/03 04:29:44;;;;;;;;;;;;;;;14.71;100.00;100241.03;4458397;32;33921;-83
2023/05/03 04:32:13;;;;;;;;;;;;;;;15.39;96.49;100248.50;4446988;32;34056;-83
2023/05/03 04:34:43;;;;;;;;;;;;;;;16.03;90.96;100248.78;4453342;32;34291;-83
2023/05/03 04:37:10;;;;;;;;;;;;;;;16.37;89.54;100244.56;4453289;32;34027;-83
2023/05/03 04:39:38;;;;;;;;;;;;;;;16.20;88.65;100247.53;4452905;32;31655;-82
2023/05/03 04:42:07;;;;;;;;;;;;;;;15.37;93.24;100255.41;4458017;32;34841;-83
2023/05/03 04:44:35;;;;;;;;;;;;;;;16.26;89.41;100252.06;4453344;32;35033;-83
2023/05/03 04:47:02;;;;;;;;;;;;;;;17.08;83.25;100253.47;4444883;32;33993;-82
2023/05/03 04:49:31;;;;;;;;;;;;;;;17.06;82.63;100260.41;4448173;32;33687;-82
2023/05/03 04:51:59;;;;;;;;;;;;;;;16.80;83.67;100259.69;4451876;32;34188;-76
2023/05/03 04:54:27;;;;;;;;;;;;;;;16.60;84.85;100259.16;4459582;32;33982;-82
2023/05/03 04:56:55;;;;;;;;;;;;;;;16.86;84.20;100266.84;4444156;32;34069;-82
2023/05/03 04:59:24;;;;;;;;;;;;;;;16.34;87.52;100265.38;4444458;32;34186;-82
2023/05/03 05:01:51;;;;;;;;;;;;;;;16.85;84.81;100270.31;4451742;32;34862;-82
2023/05/03 05:04:19;;;;;;;;;;;;;;;16.81;85.44;100273.66;4442551;32;34133;-82
2023/05/03 05:06:49;;;;;;;;;;;;;;;16.84;84.96;100273.75;4456322;32;35006;-83
2023/05/03 05:09:20;;;;;;;;;;;;;;;16.36;86.73;100279.38;4461526;32;33562;-83
2023/05/03 05:11:48;;;;;;;;;;;;;;;16.50;85.99;100272.81;4455213;32;34984;-83
2023/05/03 05:14:16;;;;;;;;;;;;;;;16.51;85.76;100274.56;4463248;32;33901;-82
2023/05/03 05:16:44;;;;;;;;;;;;;;;16.47;86.15;100273.59;4448158;32;34777;-82
2023/05/03 05:19:12;;;;;;;;;;;;;;;16.46;86.66;100277.06;4451098;32;34243;-82
2023/05/03 05:21:39;;;;;;;;;;;;;;;16.39;87.43;100279.47;4450328;32;34008;-82
2023/05/03 05:24:07;;;;;;;;;;;;;;;16.39;87.06;100279.47;4442756;32;34102;-83
2023/05/03 05:26:36;;;;;;;;;;;;;;;16.19;88.69;100279.78;4451836;32;34848;-82
2023/05/03 05:29:03;;;;;;;;;;;;;;;16.25;88.77;100277.34;4457752;32;33104;-83
2023/05/03 05:31:31;;;;;;;;;;;;;;;16.31;89.46;100282.72;4449115;32;34554;-87
2023/05/03 05:33:59;;;;;;;;;;;;;;;16.21;90.73;100285.94;4459736;32;32373;-83
2023/05/03 05:36:26;;;;;;;;;;;;;;;16.58;90.04;100287.00;4459067;32;34191;-83
2023/05/03 05:38:54;;;;;;;;;;;;;;;16.54;89.19;100292.97;4452372;32;33018;-84
2023/05/03 05:41:21;;;;;;;;;;;;;;;15.94;94.63;100290.34;4453567;32;34276;-83
2023/05/03 05:43:49;;;;;;;;;;;;;;;16.27;92.08;100291.34;4459202;32;34055;-81
2023/05/03 05:46:16;;;;;;;;;;;;;;;16.28;91.85;100293.12;4456081;32;34062;-82
2023/05/03 05:48:44;;;;;;;;;;;;;;;16.64;90.32;100287.16;4451574;32;34490;-84
2023/05/03 05:51:11;;;;;;;;;;;;;;;16.44;90.00;100289.22;4465300;32;34184;-83
2023/05/03 05:53:39;;;;;;;;;;;;;;;16.38;89.67;100286.44;4446853;32;34177;-82
2023/05/03 05:56:07;;;;;;;;;;;;;;;16.45;89.53;100296.19;4457534;32;34885;-83
2023/05/03 05:58:36;;;;;;;;;;;;;;;16.35;89.01;100294.16;4449888;32;33504;-86
2023/05/03 06:01:04;;;;;;;;;;;;;;;16.44;88.04;100304.03;4434630;32;32655;-85
2023/05/03 06:03:33;;;;;;;;;;;;;;;16.05;91.91;100299.34;4440544;32;34782;-83
2023/05/03 06:06:00;;;;;;;;;;;;;;;15.51;94.78;100306.38;4446731;32;33942;-83
2023/05/03 06:08:27;;;;;;;;;;;;;;;14.87;100.00;100309.38;4447801;32;32884;-82
2023/05/03 06:10:55;;;;;;;;;;;;;;;15.72;95.16;100310.50;4460414;32;34535;-83
2023/05/03 06:13:23;;;;;;;;;;;;;;;15.38;96.44;100319.84;4456497;32;35072;-83
2023/05/03 06:15:51;;;;;;;;;;;;;;;16.57;88.86;100320.94;4460199;32;34836;-83
2023/05/03 06:18:18;;;;;;;;;;;;;;;16.64;88.40;100329.00;4456777;32;34168;-83
2023/05/03 06:20:49;;;;;;;;;;;;;;;15.52;94.46;100329.00;4448029;32;33758;-81
2023/05/03 06:23:17;;;;;;;;;;;;;;;15.06;98.03;100331.78;4457230;32;34135;-83
2023/05/03 06:25:46;;;;;;;;;;;;;;;16.25;92.30;100333.97;4466517;32;34859;-84
2023/05/03 06:28:14;;;;;;;;;;;;;;;16.50;90.77;100336.47;4458416;32;33341;-83
2023/05/03 06:30:46;;;;;;;;;;;;;;;16.64;89.28;100339.47;4460674;32;34326;-82
2023/05/03 06:33:15;;;;;;;;;;;;;;;17.09;87.50;100344.25;4451067;32;33442;-83
2023/05/03 06:35:42;;;;;;;;;;;;;;;17.24;86.22;100348.13;4455338;32;34350;-84
2023/05/03 06:38:10;;;;;;;;;;;;;;;17.67;84.14;100351.84;4458408;32;33429;-84
2023/05/03 06:40:40;;;;;;;;;;;;;;;16.09;92.47;100353.53;4462539;32;33726;-83
2023/05/03 06:43:07;;;;;;;;;;;;;;;16.38;90.63;100359.63;4455796;32;33952;-83
2023/05/03 06:45:35;;;;;;;;;;;;;;;16.43;91.99;100355.41;4453133;32;34716;-82
2023/05/03 06:48:02;;;;;;;;;;;;;;;16.60;89.18;100353.31;4447153;32;34017;-83
2023/05/03 06:50:30;;;;;;;;;;;;;;;17.20;87.77;100352.37;4462077;32;34022;-84
2023/05/03 06:52:57;;;;;;;;;;;;;;;17.71;84.15;100348.44;4454483;32;34005;-86
2023/05/03 06:55:28;;;;;;;;;;;;;;;16.85;85.49;100361.91;4444808;32;34272;-86
2023/05/03 06:57:56;;;;;;;;;;;;;;;17.31;83.90;100357.91;4456089;32;33409;-85
2023/05/03 07:00:24;;;;;;;;;;;;;;;17.82;81.71;100359.19;4454356;32;34776;-86
2023/05/03 07:02:52;;;;;;;;;;;;;;;17.98;80.27;100344.75;4450881;32;35052;-88
2023/05/03 07:05:20;;;;;;;;;;;;;;;16.21;89.13;100358.25;4450318;32;31202;-88
2023/05/03 07:07:54;;;;;;;;;;;;;;;17.43;84.43;100353.00;4455264;32;33102;-87
2023/05/03 07:10:22;;;;;;;;;;;;;;;16.41;89.22;100356.22;4452587;32;33280;-84
2023/05/03 07:12:49;;;;;;;;;;;;;;;16.10;92.15;100356.16;4451163;32;34912;-89
2023/05/03 07:15:16;;;;;;;;;;;;;;;16.06;94.09;100363.88;4467028;32;33389;-86
2023/05/03 07:17:43;;;;;;;;;;;;;;;16.83;90.97;100358.34;4453584;32;33505;-86
2023/05/03 07:20:11;;;;;;;;;;;;;;;17.26;88.07;100357.78;4456367;32;34891;-86
2023/05/03 07:22:38;;;;;;;;;;;;;;;16.52;92.79;100365.28;4452144;32;34256;-86
2023/05/03 07:25:06;;;;;;;;;;;;;;;16.59;93.32;100351.53;4452115;32;33830;-84
2023/05/03 07:27:34;;;;;;;;;;;;;;;17.85;84.03;100349.72;4453020;32;34393;-86
2023/05/03 07:30:02;;;;;;;;;;;;;;;17.10;87.93;100356.50;4455534;32;34104;-84
2023/05/03 07:32:31;;;;;;;;;;;;;;;17.13;90.17;100354.81;4454168;32;33191;-87
2023/05/03 07:34:59;;;;;;;;;;;;;;;18.19;81.40;100349.59;4455681;32;33453;-86
2023/05/03 07:37:27;;;;;;;;;;;;;;;18.18;78.82;100348.72;4457819;32;33967;-86
2023/05/03 07:39:55;;;;;;;;;;;;;;;18.55;77.18;100357.41;4458911;32;34862;-85
2023/05/03 07:42:23;;;;;;;;;;;;;;;17.07;84.47;100356.44;4456440;32;34213;-85
2023/05/03 07:44:51;;;;;;;;;;;;;;;17.51;82.97;100353.19;4450141;32;34080;-86
2023/05/03 07:47:18;;;;;;;;;;;;;;;17.88;84.31;100346.25;4451081;32;32964;-86
2023/05/03 07:49:46;;;;;;;;;;;;;;;17.15;82.74;100347.88;4461649;32;34493;-86
2023/05/03 07:52:13;;;;;;;;;;;;;;;17.63;81.95;100352.59;4459222;32;33536;-87
2023/05/03 07:54:42;;;;;;;;;;;;;;;18.62;75.25;100354.06;4456314;32;34159;-84
2023/05/03 07:57:09;;;;;;;;;;;;;;;17.86;79.67;100354.09;4446601;32;33996;-83
2023/05/03 07:59:37;;;;;;;;;;;;;;;18.75;75.53;100362.16;4457610;32;34610;-83
2023/05/03 08:02:05;;;;;;;;;;;;;;;18.94;74.62;100361.72;4451266;32;35032;-82
2023/05/03 08:04:33;;;;;;;;;;;;;;;18.10;80.18;100366.03;4444261;32;34683;-82
2023/05/03 08:07:01;;;;;;;;;;;;;;;17.96;78.70;100362.16;4447194;32;33485;-81
2023/05/03 08:09:28;;;;;;;;;;;;;;;18.60;76.69;100363.63;4446340;32;33359;-82
2023/05/03 08:11:56;;;;;;;;;;;;;;;17.94;78.78;100363.88;4444601;32;34750;-83
2023/05/03 08:14:23;;;;;;;;;;;;;;;19.39;74.21;100363.47;4448674;32;33873;-84
2023/05/03 08:16:51;;;;;;;;;;;;;;;20.29;68.66;100370.16;4445878;32;33676;-82
2023/05/03 08:19:18;;;;;;;;;;;;;;;19.99;69.22;100367.13;4446738;32;34163;-81
2023/05/03 08:21:46;;;;;;;;;;;;;;;18.65;74.33;100372.47;4449227;32;34517;-84
2023/05/03 08:24:14;;;;;;;;;;;;;;;19.87;71.57;100366.91;4443586;32;33788;-84
2023/05/03 08:26:44;;;;;;;;;;;;;;;20.23;69.52;100366.56;4444999;32;32700;-83
2023/05/03 08:29:12;;;;;;;;;;;;;;;19.79;70.16;100364.16;4450618;32;34071;-84
2023/05/03 08:31:39;;;;;;;;;;;;;;;19.18;72.83;100366.56;4448673;32;34144;-84
2023/05/03 08:34:09;;;;;;;;;;;;;;;19.27;70.28;100365.84;4448048;32;33737;-85
2023/05/03 08:36:40;;;;;;;;;;;;;;;18.65;74.99;100366.34;4450707;32;33278;-84
2023/05/03 08:39:09;;;;;;;;;;;;;;;19.83;70.51;100365.97;4445500;32;32539;-85
2023/05/03 08:41:36;;;;;;;;;;;;;;;19.18;71.84;100368.28;4454577;32;33609;-83
2023/05/03 08:44:04;;;;;;;;;;;;;;;19.28;70.47;100374.59;4448095;32;32335;-86
2023/05/03 08:46:35;;;;;;;;;;;;;;;19.71;67.75;100371.00;4442201;32;33473;-84
2023/05/03 08:49:03;;;;;;;;;;;;;;;20.26;65.03;100375.38;4452263;32;34200;-88
2023/05/03 08:51:30;;;;;;;;;;;;;;;19.32;70.85;100379.06;4453178;32;33528;-86
2023/05/03 08:53:58;;;;;;;;;;;;;;;20.04;68.98;100378.56;4443904;32;34009;-85
2023/05/03 08:56:32;;;;;;;;;;;;;;;20.42;68.78;100378.25;4445653;32;32488;-84
2023/05/03 08:59:06;;;;;;;;;;;;;;;21.30;65.82;100368.78;4441866;32;34254;-86
2023/05/03 09:01:37;;;;;;;;;;;;;;;20.19;65.70;100379.69;4450272;32;32381;-85
2023/05/03 09:04:05;;;;;;;;;;;;;;;20.87;63.13;100385.87;4446014;32;34948;-87
2023/05/03 09:06:33;;;;;;;;;;;;;;;20.38;67.43;100378.19;4448411;32;33280;-87
2023/05/03 09:09:00;;;;;;;;;;;;;;;20.44;67.53;100373.03;4448476;32;34612;-85
2023/05/03 09:11:29;;;;;;;;;;;;;;;20.35;67.91;100372.87;4438217;32;33914;-87
2023/05/03 09:14:16;;;;;;;;;;;;;;;19.62;70.09;100377.00;4436678;32;34194;-89
2023/05/03 09:16:44;;;;;;;;;;;;;;;19.92;67.50;100374.88;4444719;32;33339;-86
2023/05/03 09:19:12;;;;;;;;;;;;;;;18.62;73.66;100382.00;4451622;32;34375;-85
2023/05/03 09:21:43;;;;;;;;;;;;;;;19.62;70.63;100376.09;4455117;32;35094;-86
2023/05/03 09:24:14;;;;;;;;;;;;;;;19.76;67.96;100374.62;4446739;32;33920;-85
2023/05/03 09:26:41;;;;;;;;;;;;;;;19.73;68.67;100378.94;4451554;32;33271;-87
2023/05/03 09:29:09;;;;;;;;;;;;;;;19.14;69.17;100380.50;4447093;32;34146;-86
2023/05/03 09:31:37;;;;;;;;;;;;;;;19.55;68.85;100375.13;4443181;32;33902;-87
2023/05/03 09:34:19;;;;;;;;;;;;;;;19.14;71.13;100370.00;4434258;32;32981;-85
2023/05/03 09:36:47;;;;;;;;;;;;;;;19.15;73.45;100376.13;4446271;32;32187;-86
2023/05/03 09:39:15;;;;;;;;;;;;;;;19.60;69.93;100367.28;4453286;32;34740;-85
2023/05/03 09:41:42;;;;;;;;;;;;;;;19.80;67.93;100371.19;4452008;32;33560;-85
2023/05/03 09:44:09;;;;;;;;;;;;;;;19.27;70.18;100370.22;4448551;32;34093;-83
2023/05/03 09:46:37;;;;;;;;;;;;;;;19.07;69.05;100375.09;4442895;32;31838;-86
2023/05/03 09:49:05;;;;;;;;;;;;;;;18.84;70.43;100378.16;4433981;32;33456;-84
2023/05/03 09:51:33;;;;;;;;;;;;;;;19.51;68.60;100364.50;4434977;32;34112;-84
2023/05/03 09:54:00;;;;;;;;;;;;;;;19.05;71.04;100370.69;4432252;32;34445;-82
2023/05/03 09:56:27;;;;;;;;;;;;;;;20.01;69.20;100369.75;4443635;32;32370;-85
2023/05/03 09:58:55;;;;;;;;;;;;;;;19.57;68.64;100370.78;4450039;32;33830;-85
2023/05/03 10:01:23;;;;;;;;;;;;;;;19.52;68.85;100369.78;4451787;32;33989;-86
2023/05/03 10:03:50;;;;;;;;;;;;;;;19.22;68.99;100365.78;4433693;32;33858;-83
2023/05/03 10:06:28;;;;;;;;;;;;;;;18.72;70.58;100377.88;4451171;32;33429;-85
2023/05/03 10:08:59;;;;;;;;;;;;;;;19.07;69.70;100368.09;4445454;32;33913;-83
2023/05/03 10:11:28;;;;;;;;;;;;;;;19.07;68.84;100369.84;4452189;32;33997;-82
2023/05/03 10:13:55;;;;;;;;;;;;;;;19.15;69.83;100363.00;4450305;32;33692;-85
2023/05/03 10:16:25;;;;;;;;;;;;;;;19.12;68.24;100357.69;4449787;32;31667;-85
2023/05/03 10:18:53;;;;;;;;;;;;;;;19.69;68.36;100364.84;4434712;32;34180;-85
2023/05/03 10:21:23;;;;;;;;;;;;;;;20.65;65.32;100363.66;4438208;32;32830;-82
2023/05/03 10:24:11;;;;;;;;;;;;;;;19.35;68.18;100361.59;4450107;32;34088;-85
2023/05/03 10:26:40;;;;;;;;;;;;;;;19.45;69.38;100363.56;4449046;32;33440;-85
2023/05/03 10:29:26;;;;;;;;;;;;;;;20.49;65.70;100363.41;4447341;32;34150;-84
2023/05/03 10:31:54;;;;;;;;;;;;;;;19.91;68.23;100357.31;4453086;32;34193;-83
2023/05/03 10:34:22;;;;;;;;;;;;;;;19.71;67.75;100359.59;4450421;32;34716;-85
2023/05/03 10:36:52;;;;;;;;;;;;;;;20.13;66.07;100354.16;4448162;32;33679;-83
2023/05/03 10:39:19;;;;;;;;;;;;;;;20.43;66.74;100358.97;4438893;32;34723;-83
2023/05/03 10:42:02;;;;;;;;;;;;;;;19.31;69.11;100349.28;4454207;32;34343;-85
2023/05/03 10:44:51;;;;;;;;;;;;;;;20.20;67.29;100348.16;4452748;32;35963;-85
2023/05/03 10:47:21;;;;;;;;;;;;;;;20.37;65.21;100352.75;4435459;32;31536;-85
2023/05/03 10:50:08;;;;;;;;;;;;;;;20.36;66.49;100341.34;4455436;32;33949;-85
2023/05/03 10:52:35;;;;;;;;;;;;;;;20.38;65.87;100344.88;4458542;32;33845;-86
2023/05/03 10:55:08;;;;;;;;;;;;;;;20.18;67.88;100338.44;4449786;32;34665;-86
2023/05/03 10:57:36;;;;;;;;;;;;;;;20.29;64.99;100330.72;4451120;32;32977;-85
2023/05/03 11:00:11;;;;;;;;;;;;;;;20.25;63.56;100336.81;4442832;32;33718;-84
2023/05/03 11:02:58;;;;;;;;;;;;;;;20.22;63.28;100342.88;4455959;32;33518;-84
2023/05/03 11:05:26;;;;;;;;;;;;;;;20.08;64.77;100345.31;4454235;32;33490;-86
2023/05/03 11:08:10;;;;;;;;;;;;;;;20.42;64.63;100340.53;4441954;32;32725;-86
2023/05/03 11:10:38;;;;;;;;;;;;;;;19.81;64.73;100341.41;4437896;32;33280;-87
2023/05/03 11:13:05;;;;;;;;;;;;;;;20.25;62.80;100331.53;4450190;32;34915;-88
2023/05/03 11:15:33;;;;;;;;;;;;;;;20.74;60.71;100342.72;4455435;32;36293;-88
2023/05/03 11:18:00;;;;;;;;;;;;;;;20.61;61.86;100342.56;4455745;32;33374;-85
2023/05/03 11:20:28;;;;;;;;;;;;;;;20.33;62.34;100337.78;4453831;32;34366;-86
2023/05/03 11:22:55;;;;;;;;;;;;;;;20.43;63.14;100347.56;4450371;32;35831;-86
2023/05/03 11:25:22;;;;;;;;;;;;;;;20.14;64.26;100348.03;4451090;32;34335;-86
2023/05/03 11:27:50;;;;;;;;;;;;;;;20.87;62.12;100344.63;4455919;32;33528;-86
2023/05/03 11:30:17;;;;;;;;;;;;;;;19.91;66.76;100345.06;4446593;32;34034;-87
2023/05/03 11:32:44;;;;;;;;;;;;;;;19.91;69.03;100341.53;4454657;32;33893;-87
2023/05/03 11:35:12;;;;;;;;;;;;;;;20.07;67.23;100340.94;4443851;32;34684;-86
2023/05/03 11:37:41;;;;;;;;;;;;;;;20.31;67.04;100336.88;4456131;32;33596;-86
2023/05/03 11:40:15;;;;;;;;;;;;;;;19.56;69.83;100341.84;4450309;32;32831;-85
2023/05/03 11:42:52;;;;;;;;;;;;;;;19.49;71.09;100342.56;4455403;32;33743;-86
2023/05/03 11:45:24;;;;;;;;;;;;;;;18.99;72.58;100340.81;4441643;32;32787;-87
2023/05/03 11:47:52;;;;;;;;;;;;;;;20.01;67.49;100343.44;4451588;32;32892;-86
2023/05/03 11:50:25;;;;;;;;;;;;;;;19.59;70.67;100341.91;4463001;32;33666;-88
2023/05/03 11:52:52;;;;;;;;;;;;;;;19.79;68.80;100343.13;4442935;32;34481;-85
2023/05/03 11:55:20;;;;;;;;;;;;;;;19.41;71.55;100343.34;4457414;32;34207;-88
2023/05/03 11:57:47;;;;;;;;;;;;;;;19.88;70.46;100341.53;4448346;32;32303;-88
2023/05/03 12:00:19;;;;;;;;;;;;;;;19.54;71.40;100340.91;4442177;32;34995;-87
2023/05/03 12:02:47;;;;;;;;;;;;;;;19.64;71.58;100337.56;4454544;32;33640;-88
2023/05/03 12:05:14;;;;;;;;;;;;;;;19.19;72.66;100339.44;4446249;32;34728;-89
2023/05/03 12:08:17;;;;;;;;;;;;;;;19.72;72.02;100338.66;4441155;32;33599;-88
2023/05/03 12:10:48;;;;;;;;;;;;;;;19.44;72.81;100342.50;4452067;32;32680;-87
2023/05/03 12:13:27;;;;;;;;;;;;;;;19.23;73.10;100337.75;4444161;32;32276;-86
2023/05/03 12:15:59;;;;;;;;;;;;;;;18.74;76.16;100347.28;4445790;32;32902;-86
2023/05/03 12:18:51;;;;;;;;;;;;;;;18.02;78.23;100346.59;4440006;32;33212;-85
2023/05/03 12:21:23;;;;;;;;;;;;;;;18.69;77.15;100336.69;4450056;32;32891;-86
2023/05/03 12:23:53;;;;;;;;;;;;;;;18.56;76.21;100332.94;4454507;32;34387;-87
2023/05/03 12:26:25;;;;;;;;;;;;;;;17.65;80.85;100335.19;4458421;32;34462;-86
2023/05/03 12:28:52;;;;;;;;;;;;;;;18.47;76.43;100340.62;4460376;32;33522;-88
2023/05/03 12:31:23;;;;;;;;;;;;;;;18.21;77.53;100342.66;4453108;32;34038;-83
2023/05/03 12:33:51;;;;;;;;;;;;;;;18.64;76.52;100333.97;4442226;32;33996;-87
2023/05/03 12:36:21;;;;;;;;;;;;;;;18.70;75.51;100325.34;4443458;32;34008;-87
2023/05/03 12:38:52;;;;;;;;;;;;;;;18.98;74.53;100332.03;4445222;32;31706;-87
2023/05/03 12:41:26;;;;;;;;;;;;;;;18.34;77.19;100330.72;4464882;32;33393;-86
2023/05/03 12:44:13;;;;;;;;;;;;;;;18.89;74.82;100329.25;4426575;32;33230;-87
2023/05/03 12:46:43;;;;;;;;;;;;;;;19.02;73.66;100319.84;4453623;32;34014;-84